This is the latest recevied weather packets stored in our database for station/object KE2A-13. If no packets are shown the sender has not sent any weather packets the latest 10 day(s).
| Time | Temp. | Humidity | Pressure | Rain* | Wind** | Luminosity | Snow |
|---|---|---|---|---|---|---|---|
| 1778086800 | 17.78° C | 86% | 1007.8 hPa | 1.27 mm | - | - | - |
| 1778085900 | 18.33° C | 83% | 1008 hPa | 0.76 mm | - | - | - |
| 1778085000 | 18.89° C | 78% | 1008.5 hPa | 0.25 mm | - | - | - |
| 1778084100 | 18.89° C | 79% | 1008.8 hPa | 0.25 mm | - | - | - |
| 1778083200 | 19.44° C | 77% | 1008.7 hPa | - | - | - | - |
| 1778082300 | 19.44° C | 75% | 1008.8 hPa | - | - | - | - |
| 1778081400 | 20° C | 74% | 1008.9 hPa | - | - | - | - |
| 1778080500 | 20° C | 72% | 1009.1 hPa | - | - | - | - |
| 1778079600 | 20.56° C | 70% | 1009.1 hPa | - | - | - | - |
| 1778078700 | 20.56° C | 71% | 1008.9 hPa | - | - | - | - |
| 1778077800 | 20.56° C | 71% | 1009 hPa | - | - | - | - |
| 1778076900 | 20° C | 72% | 1009.1 hPa | - | - | - | - |
| 1778076000 | 19.44° C | 73% | 1009.3 hPa | - | - | - | - |
| 1778075100 | 19.44° C | 72% | 1009.2 hPa | - | - | - | - |
| 1778074200 | 19.44° C | 73% | 1009.1 hPa | - | - | - | - |
| 1778073300 | 19.44° C | 73% | 1009.2 hPa | - | - | - | - |
| 1778072400 | 19.44° C | 73% | 1008.8 hPa | - | - | - | - |
| 1778071500 | 18.33° C | 76% | 1008.9 hPa | - | - | - | - |
| 1778070600 | 18.33° C | 78% | 1008.9 hPa | - | - | - | - |
| 1778069700 | 17.78° C | 80% | 1009.2 hPa | - | - | - | - |
| 1778068800 | 17.22° C | 82% | 1009.5 hPa | - | - | - | - |
| 1778067900 | 17.22° C | 81% | 1009.5 hPa | - | - | - | - |
| 1778067000 | 16.67° C | 84% | 1009.4 hPa | - | - | - | - |
| 1778066100 | 16.67° C | 84% | 1009.3 hPa | - | - | - | - |
| 1778065200 | 15.56° C | 87% | 1009.4 hPa | - | - | - | - |
* Rain latest hour (hover to see other rain measurements)
** Current wind speed in m/s (hover to see current wind gust speed)